sensor_id;sensor_type;location;lat;lon;timestamp;P1;durP1;ratioP1;P2;durP2;ratioP2
43626;SDS011;29217;52.586;13.442;2024-03-07T00:02:20;81.80;;;20.30;;
43626;SDS011;29217;52.586;13.442;2024-03-07T00:04:46;85.25;;;21.83;;
43626;SDS011;29217;52.586;13.442;2024-03-07T00:07:12;81.40;;;20.88;;
43626;SDS011;29217;52.586;13.442;2024-03-07T00:09:39;72.88;;;19.05;;
43626;SDS011;29217;52.586;13.442;2024-03-07T00:12:06;94.07;;;21.60;;
43626;SDS011;29217;52.586;13.442;2024-03-07T00:14:32;80.05;;;20.20;;
43626;SDS011;29217;52.586;13.442;2024-03-07T00:17:00;76.05;;;20.75;;
43626;SDS011;29217;52.586;13.442;2024-03-07T00:19:28;77.97;;;21.20;;
43626;SDS011;29217;52.586;13.442;2024-03-07T00:21:58;77.13;;;21.73;;
43626;SDS011;29217;52.586;13.442;2024-03-07T00:24:24;72.75;;;19.52;;
43626;SDS011;29217;52.586;13.442;2024-03-07T00:26:50;70.38;;;20.17;;
43626;SDS011;29217;52.586;13.442;2024-03-07T00:29:17;81.28;;;20.70;;
43626;SDS011;29217;52.586;13.442;2024-03-07T00:31:44;80.53;;;21.20;;
43626;SDS011;29217;52.586;13.442;2024-03-07T00:34:11;85.38;;;20.98;;
43626;SDS011;29217;52.586;13.442;2024-03-07T00:36:43;73.85;;;20.33;;
43626;SDS011;29217;52.586;13.442;2024-03-07T00:39:09;89.82;;;19.95;;
43626;SDS011;29217;52.586;13.442;2024-03-07T00:41:39;74.80;;;21.15;;
43626;SDS011;29217;52.586;13.442;2024-03-07T00:44:05;69.63;;;20.23;;
43626;SDS011;29217;52.586;13.442;2024-03-07T00:46:33;79.00;;;21.25;;
43626;SDS011;29217;52.586;13.442;2024-03-07T00:48:59;63.15;;;20.98;;
43626;SDS011;29217;52.586;13.442;2024-03-07T00:51:26;83.55;;;22.35;;
43626;SDS011;29217;52.586;13.442;2024-03-07T00:53:52;68.45;;;21.30;;
43626;SDS011;29217;52.586;13.442;2024-03-07T00:56:18;97.75;;;22.70;;
43626;SDS011;29217;52.586;13.442;2024-03-07T00:58:47;76.13;;;20.60;;
43626;SDS011;29217;52.586;13.442;2024-03-07T01:01:13;78.97;;;22.15;;
43626;SDS011;29217;52.586;13.442;2024-03-07T01:03:40;74.15;;;21.38;;
43626;SDS011;29217;52.586;13.442;2024-03-07T01:06:06;78.90;;;23.50;;
43626;SDS011;29217;52.586;13.442;2024-03-07T01:08:34;82.72;;;22.67;;
43626;SDS011;29217;52.586;13.442;2024-03-07T01:11:01;106.03;;;23.67;;
43626;SDS011;29217;52.586;13.442;2024-03-07T01:13:43;87.80;;;22.05;;
43626;SDS011;29217;52.586;13.442;2024-03-07T01:16:09;79.68;;;19.60;;
43626;SDS011;29217;52.586;13.442;2024-03-07T01:18:36;88.03;;;22.85;;
43626;SDS011;29217;52.586;13.442;2024-03-07T01:21:04;77.28;;;22.05;;
43626;SDS011;29217;52.586;13.442;2024-03-07T01:23:30;73.55;;;19.98;;
43626;SDS011;29217;52.586;13.442;2024-03-07T01:25:57;66.50;;;19.80;;
43626;SDS011;29217;52.586;13.442;2024-03-07T01:28:27;79.65;;;20.33;;
43626;SDS011;29217;52.586;13.442;2024-03-07T01:30:55;72.35;;;20.80;;
43626;SDS011;29217;52.586;13.442;2024-03-07T01:33:21;78.38;;;18.98;;
43626;SDS011;29217;52.586;13.442;2024-03-07T01:35:47;66.25;;;18.63;;
43626;SDS011;29217;52.586;13.442;2024-03-07T01:38:14;78.80;;;20.27;;
43626;SDS011;29217;52.586;13.442;2024-03-07T01:40:40;77.38;;;20.55;;
43626;SDS011;29217;52.586;13.442;2024-03-07T01:43:06;65.38;;;21.13;;
43626;SDS011;29217;52.586;13.442;2024-03-07T01:45:32;67.45;;;20.17;;
43626;SDS011;29217;52.586;13.442;2024-03-07T01:47:59;65.20;;;18.85;;
43626;SDS011;29217;52.586;13.442;2024-03-07T01:50:26;75.40;;;21.15;;
43626;SDS011;29217;52.586;13.442;2024-03-07T01:52:52;79.68;;;22.42;;
43626;SDS011;29217;52.586;13.442;2024-03-07T01:55:21;59.58;;;19.25;;
43626;SDS011;29217;52.586;13.442;2024-03-07T01:57:47;72.07;;;21.63;;
43626;SDS011;29217;52.586;13.442;2024-03-07T02:00:14;68.47;;;19.20;;
43626;SDS011;29217;52.586;13.442;2024-03-07T02:02:43;64.50;;;20.15;;
43626;SDS011;29217;52.586;13.442;2024-03-07T02:05:09;64.53;;;19.80;;
43626;SDS011;29217;52.586;13.442;2024-03-07T02:07:35;68.78;;;19.52;;
43626;SDS011;29217;52.586;13.442;2024-03-07T02:10:04;70.28;;;20.20;;
43626;SDS011;29217;52.586;13.442;2024-03-07T02:12:30;91.35;;;20.67;;
43626;SDS011;29217;52.586;13.442;2024-03-07T02:14:56;59.50;;;19.77;;
43626;SDS011;29217;52.586;13.442;2024-03-07T02:17:23;66.72;;;21.67;;
43626;SDS011;29217;52.586;13.442;2024-03-07T02:19:50;77.25;;;19.63;;
43626;SDS011;29217;52.586;13.442;2024-03-07T02:22:16;80.60;;;21.83;;
43626;SDS011;29217;52.586;13.442;2024-03-07T02:24:42;69.05;;;18.58;;
43626;SDS011;29217;52.586;13.442;2024-03-07T02:27:10;66.50;;;19.88;;
43626;SDS011;29217;52.586;13.442;2024-03-07T02:29:36;79.97;;;21.45;;
43626;SDS011;29217;52.586;13.442;2024-03-07T02:32:02;74.05;;;21.92;;
43626;SDS011;29217;52.586;13.442;2024-03-07T02:34:30;77.47;;;19.17;;
43626;SDS011;29217;52.586;13.442;2024-03-07T02:36:56;68.38;;;20.40;;
43626;SDS011;29217;52.586;13.442;2024-03-07T02:39:24;77.13;;;22.40;;
43626;SDS011;29217;52.586;13.442;2024-03-07T02:41:50;72.25;;;21.90;;
43626;SDS011;29217;52.586;13.442;2024-03-07T02:44:16;67.28;;;22.00;;
43626;SDS011;29217;52.586;13.442;2024-03-07T02:46:43;63.10;;;20.08;;
43626;SDS011;29217;52.586;13.442;2024-03-07T02:49:09;63.78;;;20.75;;
43626;SDS011;29217;52.586;13.442;2024-03-07T02:51:35;69.95;;;20.80;;
43626;SDS011;29217;52.586;13.442;2024-03-07T02:54:01;77.53;;;22.80;;
43626;SDS011;29217;52.586;13.442;2024-03-07T02:56:30;67.95;;;21.67;;
43626;SDS011;29217;52.586;13.442;2024-03-07T02:58:56;58.72;;;19.73;;
43626;SDS011;29217;52.586;13.442;2024-03-07T03:01:22;64.35;;;19.17;;
43626;SDS011;29217;52.586;13.442;2024-03-07T03:03:48;56.10;;;18.08;;
43626;SDS011;29217;52.586;13.442;2024-03-07T03:06:14;71.68;;;18.65;;
43626;SDS011;29217;52.586;13.442;2024-03-07T03:08:40;60.95;;;21.05;;
43626;SDS011;29217;52.586;13.442;2024-03-07T03:11:06;70.43;;;21.23;;
43626;SDS011;29217;52.586;13.442;2024-03-07T03:13:39;63.55;;;18.17;;
43626;SDS011;29217;52.586;13.442;2024-03-07T03:16:05;68.97;;;19.48;;
43626;SDS011;29217;52.586;13.442;2024-03-07T03:18:34;62.95;;;19.77;;
43626;SDS011;29217;52.586;13.442;2024-03-07T03:21:01;70.35;;;19.88;;
43626;SDS011;29217;52.586;13.442;2024-03-07T03:23:27;66.82;;;18.98;;
43626;SDS011;29217;52.586;13.442;2024-03-07T03:25:53;62.72;;;19.92;;
43626;SDS011;29217;52.586;13.442;2024-03-07T03:28:20;59.22;;;19.35;;
43626;SDS011;29217;52.586;13.442;2024-03-07T03:30:47;63.25;;;18.92;;
43626;SDS011;29217;52.586;13.442;2024-03-07T03:33:15;63.75;;;19.60;;
43626;SDS011;29217;52.586;13.442;2024-03-07T03:35:41;65.40;;;19.58;;
43626;SDS011;29217;52.586;13.442;2024-03-07T03:38:07;67.43;;;19.75;;
43626;SDS011;29217;52.586;13.442;2024-03-07T03:40:34;73.60;;;20.48;;
43626;SDS011;29217;52.586;13.442;2024-03-07T03:43:01;69.78;;;20.35;;
43626;SDS011;29217;52.586;13.442;2024-03-07T03:45:27;64.63;;;19.17;;
43626;SDS011;29217;52.586;13.442;2024-03-07T03:47:54;64.85;;;19.27;;
43626;SDS011;29217;52.586;13.442;2024-03-07T03:50:20;57.90;;;17.77;;
43626;SDS011;29217;52.586;13.442;2024-03-07T03:52:48;68.53;;;20.58;;
43626;SDS011;29217;52.586;13.442;2024-03-07T03:55:15;69.10;;;21.10;;
43626;SDS011;29217;52.586;13.442;2024-03-07T03:57:42;63.65;;;18.77;;
43626;SDS011;29217;52.586;13.442;2024-03-07T04:00:09;54.70;;;18.85;;
43626;SDS011;29217;52.586;13.442;2024-03-07T04:02:41;61.25;;;19.42;;
43626;SDS011;29217;52.586;13.442;2024-03-07T04:05:09;59.65;;;18.98;;
43626;SDS011;29217;52.586;13.442;2024-03-07T04:07:36;65.25;;;17.92;;
43626;SDS011;29217;52.586;13.442;2024-03-07T04:10:02;52.00;;;19.58;;
43626;SDS011;29217;52.586;13.442;2024-03-07T04:12:28;66.35;;;20.23;;
43626;SDS011;29217;52.586;13.442;2024-03-07T04:14:54;65.22;;;20.08;;
43626;SDS011;29217;52.586;13.442;2024-03-07T04:17:20;51.88;;;18.45;;
43626;SDS011;29217;52.586;13.442;2024-03-07T04:19:47;59.00;;;18.33;;
43626;SDS011;29217;52.586;13.442;2024-03-07T04:22:13;55.35;;;18.63;;
43626;SDS011;29217;52.586;13.442;2024-03-07T04:24:39;53.13;;;18.42;;
43626;SDS011;29217;52.586;13.442;2024-03-07T04:27:06;53.67;;;17.30;;
43626;SDS011;29217;52.586;13.442;2024-03-07T04:29:34;54.60;;;19.23;;
43626;SDS011;29217;52.586;13.442;2024-03-07T04:32:01;52.00;;;18.95;;
43626;SDS011;29217;52.586;13.442;2024-03-07T04:34:28;53.88;;;16.95;;
43626;SDS011;29217;52.586;13.442;2024-03-07T04:36:56;49.03;;;17.63;;
43626;SDS011;29217;52.586;13.442;2024-03-07T04:39:23;58.25;;;17.42;;
43626;SDS011;29217;52.586;13.442;2024-03-07T04:42:04;53.15;;;17.00;;
43626;SDS011;29217;52.586;13.442;2024-03-07T04:44:31;51.58;;;18.17;;
43626;SDS011;29217;52.586;13.442;2024-03-07T04:46:57;52.25;;;16.98;;
43626;SDS011;29217;52.586;13.442;2024-03-07T04:49:25;47.88;;;18.20;;
43626;SDS011;29217;52.586;13.442;2024-03-07T04:51:53;41.35;;;16.10;;
43626;SDS011;29217;52.586;13.442;2024-03-07T04:54:19;48.22;;;18.10;;
43626;SDS011;29217;52.586;13.442;2024-03-07T04:56:46;49.17;;;17.58;;
43626;SDS011;29217;52.586;13.442;2024-03-07T04:59:12;50.75;;;18.48;;
43626;SDS011;29217;52.586;13.442;2024-03-07T05:01:39;51.42;;;17.30;;
43626;SDS011;29217;52.586;13.442;2024-03-07T05:04:05;42.33;;;16.05;;
43626;SDS011;29217;52.586;13.442;2024-03-07T05:06:31;43.10;;;17.50;;
43626;SDS011;29217;52.586;13.442;2024-03-07T05:09:01;52.42;;;17.63;;
43626;SDS011;29217;52.586;13.442;2024-03-07T05:11:31;52.85;;;18.30;;
43626;SDS011;29217;52.586;13.442;2024-03-07T05:13:57;51.80;;;17.98;;
43626;SDS011;29217;52.586;13.442;2024-03-07T05:16:25;46.67;;;17.35;;
43626;SDS011;29217;52.586;13.442;2024-03-07T05:18:51;42.25;;;17.27;;
43626;SDS011;29217;52.586;13.442;2024-03-07T05:21:18;48.47;;;17.60;;
43626;SDS011;29217;52.586;13.442;2024-03-07T05:24:02;46.83;;;16.85;;
43626;SDS011;29217;52.586;13.442;2024-03-07T05:26:29;43.28;;;15.30;;
43626;SDS011;29217;52.586;13.442;2024-03-07T05:29:00;48.08;;;16.15;;
43626;SDS011;29217;52.586;13.442;2024-03-07T05:31:29;42.63;;;16.65;;
43626;SDS011;29217;52.586;13.442;2024-03-07T05:33:59;43.40;;;16.67;;
43626;SDS011;29217;52.586;13.442;2024-03-07T05:36:25;50.33;;;17.50;;
43626;SDS011;29217;52.586;13.442;2024-03-07T05:38:52;60.70;;;19.52;;
43626;SDS011;29217;52.586;13.442;2024-03-07T05:41:18;57.47;;;19.90;;
43626;SDS011;29217;52.586;13.442;2024-03-07T05:43:44;60.50;;;20.58;;
43626;SDS011;29217;52.586;13.442;2024-03-07T05:46:10;56.13;;;19.35;;
43626;SDS011;29217;52.586;13.442;2024-03-07T05:48:36;56.88;;;19.67;;
43626;SDS011;29217;52.586;13.442;2024-03-07T05:51:03;59.22;;;19.00;;
43626;SDS011;29217;52.586;13.442;2024-03-07T05:53:29;49.00;;;18.90;;
43626;SDS011;29217;52.586;13.442;2024-03-07T05:55:55;56.25;;;20.58;;
43626;SDS011;29217;52.586;13.442;2024-03-07T05:58:21;45.83;;;17.73;;
43626;SDS011;29217;52.586;13.442;2024-03-07T06:00:47;53.40;;;18.80;;
43626;SDS011;29217;52.586;13.442;2024-03-07T06:03:17;46.42;;;17.70;;
43626;SDS011;29217;52.586;13.442;2024-03-07T06:05:49;46.42;;;17.02;;
43626;SDS011;29217;52.586;13.442;2024-03-07T06:08:16;45.22;;;16.23;;
43626;SDS011;29217;52.586;13.442;2024-03-07T06:10:43;48.53;;;17.70;;
43626;SDS011;29217;52.586;13.442;2024-03-07T06:13:10;49.55;;;16.17;;
43626;SDS011;29217;52.586;13.442;2024-03-07T06:15:36;46.15;;;16.85;;
43626;SDS011;29217;52.586;13.442;2024-03-07T06:18:04;48.28;;;16.60;;
43626;SDS011;29217;52.586;13.442;2024-03-07T06:20:30;58.33;;;18.33;;
43626;SDS011;29217;52.586;13.442;2024-03-07T06:22:57;45.05;;;18.08;;
43626;SDS011;29217;52.586;13.442;2024-03-07T06:25:24;46.53;;;17.23;;
43626;SDS011;29217;52.586;13.442;2024-03-07T06:28:05;49.55;;;18.48;;
43626;SDS011;29217;52.586;13.442;2024-03-07T06:30:36;49.58;;;18.17;;
43626;SDS011;29217;52.586;13.442;2024-03-07T06:33:03;53.60;;;16.50;;
43626;SDS011;29217;52.586;13.442;2024-03-07T06:35:29;48.60;;;19.08;;
43626;SDS011;29217;52.586;13.442;2024-03-07T06:37:55;46.60;;;17.55;;
43626;SDS011;29217;52.586;13.442;2024-03-07T06:40:21;44.17;;;17.52;;
43626;SDS011;29217;52.586;13.442;2024-03-07T06:42:47;43.50;;;16.73;;
43626;SDS011;29217;52.586;13.442;2024-03-07T06:45:13;40.22;;;16.20;;
43626;SDS011;29217;52.586;13.442;2024-03-07T06:47:41;43.28;;;16.63;;
43626;SDS011;29217;52.586;13.442;2024-03-07T06:50:07;43.47;;;17.05;;
43626;SDS011;29217;52.586;13.442;2024-03-07T06:52:39;40.17;;;16.15;;
43626;SDS011;29217;52.586;13.442;2024-03-07T06:55:05;44.65;;;17.05;;
43626;SDS011;29217;52.586;13.442;2024-03-07T06:57:32;62.60;;;19.42;;
43626;SDS011;29217;52.586;13.442;2024-03-07T07:00:01;42.55;;;16.58;;
43626;SDS011;29217;52.586;13.442;2024-03-07T07:02:35;49.78;;;18.13;;
43626;SDS011;29217;52.586;13.442;2024-03-07T07:05:01;54.20;;;15.95;;
43626;SDS011;29217;52.586;13.442;2024-03-07T07:07:31;46.67;;;14.60;;
43626;SDS011;29217;52.586;13.442;2024-03-07T07:10:01;35.33;;;13.55;;
43626;SDS011;29217;52.586;13.442;2024-03-07T07:12:27;35.88;;;14.48;;
43626;SDS011;29217;52.586;13.442;2024-03-07T07:14:54;43.38;;;15.23;;
43626;SDS011;29217;52.586;13.442;2024-03-07T07:17:20;33.03;;;13.70;;
43626;SDS011;29217;52.586;13.442;2024-03-07T07:19:48;44.90;;;15.18;;
43626;SDS011;29217;52.586;13.442;2024-03-07T07:22:14;43.58;;;15.15;;
43626;SDS011;29217;52.586;13.442;2024-03-07T07:24:40;36.88;;;14.27;;
43626;SDS011;29217;52.586;13.442;2024-03-07T07:27:07;30.70;;;14.57;;
43626;SDS011;29217;52.586;13.442;2024-03-07T07:29:33;35.58;;;13.48;;
43626;SDS011;29217;52.586;13.442;2024-03-07T07:31:59;46.05;;;14.80;;
43626;SDS011;29217;52.586;13.442;2024-03-07T07:34:25;35.78;;;13.05;;
43626;SDS011;29217;52.586;13.442;2024-03-07T07:36:51;38.95;;;12.88;;
43626;SDS011;29217;52.586;13.442;2024-03-07T07:39:18;30.35;;;13.20;;
43626;SDS011;29217;52.586;13.442;2024-03-07T07:41:44;29.48;;;13.43;;
43626;SDS011;29217;52.586;13.442;2024-03-07T07:44:10;28.20;;;12.18;;
43626;SDS011;29217;52.586;13.442;2024-03-07T07:46:36;37.03;;;12.82;;
43626;SDS011;29217;52.586;13.442;2024-03-07T07:49:02;33.40;;;11.73;;
43626;SDS011;29217;52.586;13.442;2024-03-07T07:51:28;30.85;;;12.75;;
43626;SDS011;29217;52.586;13.442;2024-03-07T07:53:56;27.88;;;13.02;;
43626;SDS011;29217;52.586;13.442;2024-03-07T07:56:22;34.58;;;12.48;;
43626;SDS011;29217;52.586;13.442;2024-03-07T07:58:49;24.20;;;10.65;;
43626;SDS011;29217;52.586;13.442;2024-03-07T08:01:16;27.23;;;11.95;;
43626;SDS011;29217;52.586;13.442;2024-03-07T08:03:42;31.23;;;12.15;;
43626;SDS011;29217;52.586;13.442;2024-03-07T08:06:09;24.27;;;11.32;;
43626;SDS011;29217;52.586;13.442;2024-03-07T08:08:36;27.15;;;12.00;;
43626;SDS011;29217;52.586;13.442;2024-03-07T08:11:02;24.65;;;10.18;;
43626;SDS011;29217;52.586;13.442;2024-03-07T08:13:28;27.08;;;9.68;;
43626;SDS011;29217;52.586;13.442;2024-03-07T08:15:54;28.23;;;10.82;;
43626;SDS011;29217;52.586;13.442;2024-03-07T08:18:20;26.52;;;11.15;;
43626;SDS011;29217;52.586;13.442;2024-03-07T08:20:47;25.58;;;10.43;;
43626;SDS011;29217;52.586;13.442;2024-03-07T08:23:13;24.98;;;10.38;;
43626;SDS011;29217;52.586;13.442;2024-03-07T08:25:39;25.38;;;10.68;;
43626;SDS011;29217;52.586;13.442;2024-03-07T08:28:05;21.95;;;10.05;;
43626;SDS011;29217;52.586;13.442;2024-03-07T08:30:32;21.65;;;9.85;;
43626;SDS011;29217;52.586;13.442;2024-03-07T08:32:58;24.10;;;9.88;;
43626;SDS011;29217;52.586;13.442;2024-03-07T08:35:27;25.38;;;9.40;;
43626;SDS011;29217;52.586;13.442;2024-03-07T08:37:54;20.45;;;8.85;;
43626;SDS011;29217;52.586;13.442;2024-03-07T08:40:25;17.95;;;8.27;;
43626;SDS011;29217;52.586;13.442;2024-03-07T08:42:52;22.63;;;9.55;;
43626;SDS011;29217;52.586;13.442;2024-03-07T08:45:19;18.30;;;8.15;;
43626;SDS011;29217;52.586;13.442;2024-03-07T08:47:47;26.30;;;9.43;;
43626;SDS011;29217;52.586;13.442;2024-03-07T08:50:14;21.02;;;9.38;;
43626;SDS011;29217;52.586;13.442;2024-03-07T08:52:43;19.10;;;8.48;;
43626;SDS011;29217;52.586;13.442;2024-03-07T08:55:09;15.70;;;8.27;;
43626;SDS011;29217;52.586;13.442;2024-03-07T08:57:39;22.40;;;9.93;;
43626;SDS011;29217;52.586;13.442;2024-03-07T09:00:06;21.73;;;9.35;;
43626;SDS011;29217;52.586;13.442;2024-03-07T09:02:40;20.25;;;7.68;;
43626;SDS011;29217;52.586;13.442;2024-03-07T09:05:07;20.85;;;8.25;;
43626;SDS011;29217;52.586;13.442;2024-03-07T09:07:35;16.38;;;8.02;;
43626;SDS011;29217;52.586;13.442;2024-03-07T09:10:01;18.85;;;9.15;;
43626;SDS011;29217;52.586;13.442;2024-03-07T09:12:27;17.65;;;8.55;;
43626;SDS011;29217;52.586;13.442;2024-03-07T09:14:54;13.77;;;7.30;;
43626;SDS011;29217;52.586;13.442;2024-03-07T09:17:23;19.33;;;8.05;;
43626;SDS011;29217;52.586;13.442;2024-03-07T09:19:49;15.32;;;7.28;;
43626;SDS011;29217;52.586;13.442;2024-03-07T09:22:15;18.33;;;7.95;;
43626;SDS011;29217;52.586;13.442;2024-03-07T09:24:42;19.85;;;7.38;;
43626;SDS011;29217;52.586;13.442;2024-03-07T09:27:08;19.40;;;7.60;;
43626;SDS011;29217;52.586;13.442;2024-03-07T09:29:34;17.73;;;8.10;;
43626;SDS011;29217;52.586;13.442;2024-03-07T09:32:00;16.85;;;8.23;;
43626;SDS011;29217;52.586;13.442;2024-03-07T09:34:27;13.80;;;7.43;;
43626;SDS011;29217;52.586;13.442;2024-03-07T09:36:55;18.35;;;8.38;;
43626;SDS011;29217;52.586;13.442;2024-03-07T09:39:22;14.60;;;7.25;;
43626;SDS011;29217;52.586;13.442;2024-03-07T09:41:49;17.02;;;7.60;;
43626;SDS011;29217;52.586;13.442;2024-03-07T09:44:16;18.35;;;8.93;;
43626;SDS011;29217;52.586;13.442;2024-03-07T09:46:48;15.20;;;7.38;;
43626;SDS011;29217;52.586;13.442;2024-03-07T09:49:14;18.98;;;8.15;;
43626;SDS011;29217;52.586;13.442;2024-03-07T09:51:41;18.15;;;8.20;;
43626;SDS011;29217;52.586;13.442;2024-03-07T09:54:07;14.40;;;7.20;;
43626;SDS011;29217;52.586;13.442;2024-03-07T09:56:34;11.98;;;6.25;;
43626;SDS011;29217;52.586;13.442;2024-03-07T09:59:03;12.68;;;6.65;;
43626;SDS011;29217;52.586;13.442;2024-03-07T10:01:30;11.65;;;5.68;;
43626;SDS011;29217;52.586;13.442;2024-03-07T10:03:59;12.27;;;7.00;;
43626;SDS011;29217;52.586;13.442;2024-03-07T10:06:36;10.73;;;6.28;;
43626;SDS011;29217;52.586;13.442;2024-03-07T10:09:04;12.98;;;7.25;;
43626;SDS011;29217;52.586;13.442;2024-03-07T10:11:30;10.63;;;5.88;;
43626;SDS011;29217;52.586;13.442;2024-03-07T10:13:57;12.07;;;6.50;;
43626;SDS011;29217;52.586;13.442;2024-03-07T10:16:23;11.82;;;5.75;;
43626;SDS011;29217;52.586;13.442;2024-03-07T10:18:49;12.63;;;6.10;;
43626;SDS011;29217;52.586;13.442;2024-03-07T10:21:18;17.00;;;6.60;;
43626;SDS011;29217;52.586;13.442;2024-03-07T10:23:44;14.50;;;7.07;;
43626;SDS011;29217;52.586;13.442;2024-03-07T10:26:10;15.13;;;6.72;;
43626;SDS011;29217;52.586;13.442;2024-03-07T10:28:39;12.23;;;5.80;;
43626;SDS011;29217;52.586;13.442;2024-03-07T10:31:06;14.73;;;6.95;;
43626;SDS011;29217;52.586;13.442;2024-03-07T10:33:39;16.95;;;5.88;;
43626;SDS011;29217;52.586;13.442;2024-03-07T10:36:05;13.90;;;6.47;;
43626;SDS011;29217;52.586;13.442;2024-03-07T10:38:38;18.58;;;6.38;;
43626;SDS011;29217;52.586;13.442;2024-03-07T10:41:04;10.52;;;5.03;;
43626;SDS011;29217;52.586;13.442;2024-03-07T10:43:34;19.73;;;6.38;;
43626;SDS011;29217;52.586;13.442;2024-03-07T10:46:03;10.25;;;5.68;;
43626;SDS011;29217;52.586;13.442;2024-03-07T10:48:35;11.77;;;5.47;;
43626;SDS011;29217;52.586;13.442;2024-03-07T10:54:07;16.13;;;7.13;;
43626;SDS011;29217;52.586;13.442;2024-03-07T11:04:29;11.63;;;6.35;;
43626;SDS011;29217;52.586;13.442;2024-03-07T11:06:56;10.73;;;5.93;;
43626;SDS011;29217;52.586;13.442;2024-03-07T11:09:24;8.70;;;4.18;;
43626;SDS011;29217;52.586;13.442;2024-03-07T11:11:54;16.90;;;6.78;;
43626;SDS011;29217;52.586;13.442;2024-03-07T11:14:21;14.52;;;6.70;;
43626;SDS011;29217;52.586;13.442;2024-03-07T11:16:47;11.90;;;5.97;;
43626;SDS011;29217;52.586;13.442;2024-03-07T11:19:31;12.52;;;6.88;;
43626;SDS011;29217;52.586;13.442;2024-03-07T11:22:01;10.57;;;5.65;;
43626;SDS011;29217;52.586;13.442;2024-03-07T11:24:30;8.70;;;3.78;;
43626;SDS011;29217;52.586;13.442;2024-03-07T11:27:04;10.45;;;5.47;;
43626;SDS011;29217;52.586;13.442;2024-03-07T11:29:40;12.70;;;6.40;;
43626;SDS011;29217;52.586;13.442;2024-03-07T11:32:12;13.02;;;6.53;;
43626;SDS011;29217;52.586;13.442;2024-03-07T11:34:40;17.75;;;6.95;;
43626;SDS011;29217;52.586;13.442;2024-03-07T11:37:07;12.15;;;6.45;;
43626;SDS011;29217;52.586;13.442;2024-03-07T11:39:45;12.70;;;6.40;;
43626;SDS011;29217;52.586;13.442;2024-03-07T11:42:25;11.40;;;6.35;;
43626;SDS011;29217;52.586;13.442;2024-03-07T11:44:51;13.05;;;7.10;;
43626;SDS011;29217;52.586;13.442;2024-03-07T11:47:21;11.77;;;6.25;;
43626;SDS011;29217;52.586;13.442;2024-03-07T11:49:49;14.35;;;6.72;;
43626;SDS011;29217;52.586;13.442;2024-03-07T11:52:17;12.25;;;5.95;;
43626;SDS011;29217;52.586;13.442;2024-03-07T11:54:43;12.48;;;6.82;;
43626;SDS011;29217;52.586;13.442;2024-03-07T11:57:11;11.95;;;6.18;;
43626;SDS011;29217;52.586;13.442;2024-03-07T11:59:40;16.00;;;6.32;;
43626;SDS011;29217;52.586;13.442;2024-03-07T12:02:13;19.73;;;7.22;;
43626;SDS011;29217;52.586;13.442;2024-03-07T12:04:40;16.35;;;7.65;;
43626;SDS011;29217;52.586;13.442;2024-03-07T12:07:07;15.40;;;7.30;;
43626;SDS011;29217;52.586;13.442;2024-03-07T12:09:35;12.00;;;6.50;;
43626;SDS011;29217;52.586;13.442;2024-03-07T12:12:02;12.73;;;7.13;;
43626;SDS011;29217;52.586;13.442;2024-03-07T12:14:28;14.18;;;7.78;;
43626;SDS011;29217;52.586;13.442;2024-03-07T12:16:55;17.33;;;7.93;;
43626;SDS011;29217;52.586;13.442;2024-03-07T12:19:22;16.90;;;6.47;;
43626;SDS011;29217;52.586;13.442;2024-03-07T12:21:48;13.80;;;7.38;;
43626;SDS011;29217;52.586;13.442;2024-03-07T12:24:14;16.13;;;7.60;;
43626;SDS011;29217;52.586;13.442;2024-03-07T12:26:41;15.40;;;7.63;;
43626;SDS011;29217;52.586;13.442;2024-03-07T12:29:11;12.63;;;6.60;;
43626;SDS011;29217;52.586;13.442;2024-03-07T12:31:37;13.10;;;6.78;;
43626;SDS011;29217;52.586;13.442;2024-03-07T12:34:03;14.43;;;7.07;;
43626;SDS011;29217;52.586;13.442;2024-03-07T12:36:30;15.52;;;7.68;;
43626;SDS011;29217;52.586;13.442;2024-03-07T12:39:00;16.40;;;7.90;;
43626;SDS011;29217;52.586;13.442;2024-03-07T12:41:49;21.15;;;7.30;;
43626;SDS011;29217;52.586;13.442;2024-03-07T12:44:18;18.88;;;7.85;;
43626;SDS011;29217;52.586;13.442;2024-03-07T12:46:48;15.82;;;8.07;;
43626;SDS011;29217;52.586;13.442;2024-03-07T12:49:14;22.75;;;8.90;;
43626;SDS011;29217;52.586;13.442;2024-03-07T12:51:41;17.02;;;8.13;;
43626;SDS011;29217;52.586;13.442;2024-03-07T12:54:07;16.13;;;8.30;;
43626;SDS011;29217;52.586;13.442;2024-03-07T12:56:36;16.08;;;7.78;;
43626;SDS011;29217;52.586;13.442;2024-03-07T12:59:04;16.10;;;7.82;;
43626;SDS011;29217;52.586;13.442;2024-03-07T13:01:34;17.10;;;7.65;;
43626;SDS011;29217;52.586;13.442;2024-03-07T13:04:02;17.50;;;7.97;;
43626;SDS011;29217;52.586;13.442;2024-03-07T13:06:29;20.00;;;7.82;;
43626;SDS011;29217;52.586;13.442;2024-03-07T13:08:55;15.43;;;7.60;;
43626;SDS011;29217;52.586;13.442;2024-03-07T13:11:22;14.18;;;7.57;;
43626;SDS011;29217;52.586;13.442;2024-03-07T13:13:48;16.75;;;7.32;;
43626;SDS011;29217;52.586;13.442;2024-03-07T13:16:16;16.73;;;7.80;;
43626;SDS011;29217;52.586;13.442;2024-03-07T13:18:42;17.77;;;8.80;;
43626;SDS011;29217;52.586;13.442;2024-03-07T13:21:08;16.63;;;7.78;;
43626;SDS011;29217;52.586;13.442;2024-03-07T13:23:35;20.65;;;9.13;;
43626;SDS011;29217;52.586;13.442;2024-03-07T13:26:04;20.85;;;8.55;;
43626;SDS011;29217;52.586;13.442;2024-03-07T13:28:33;17.77;;;7.90;;
43626;SDS011;29217;52.586;13.442;2024-03-07T13:31:00;15.57;;;8.10;;
43626;SDS011;29217;52.586;13.442;2024-03-07T13:33:28;19.08;;;8.98;;
43626;SDS011;29217;52.586;13.442;2024-03-07T13:35:54;21.35;;;9.35;;
43626;SDS011;29217;52.586;13.442;2024-03-07T13:38:21;19.48;;;8.57;;
43626;SDS011;29217;52.586;13.442;2024-03-07T13:40:47;16.40;;;7.93;;
43626;SDS011;29217;52.586;13.442;2024-03-07T13:43:14;18.27;;;7.72;;
43626;SDS011;29217;52.586;13.442;2024-03-07T13:45:40;18.23;;;8.70;;
43626;SDS011;29217;52.586;13.442;2024-03-07T13:48:09;19.70;;;8.90;;
43626;SDS011;29217;52.586;13.442;2024-03-07T13:50:38;16.27;;;6.88;;
43626;SDS011;29217;52.586;13.442;2024-03-07T13:53:05;18.17;;;8.27;;
43626;SDS011;29217;52.586;13.442;2024-03-07T13:55:53;21.70;;;8.98;;
43626;SDS011;29217;52.586;13.442;2024-03-07T13:58:26;17.35;;;7.95;;
43626;SDS011;29217;52.586;13.442;2024-03-07T14:01:03;17.25;;;7.25;;
43626;SDS011;29217;52.586;13.442;2024-03-07T14:06:08;13.85;;;7.47;;
43626;SDS011;29217;52.586;13.442;2024-03-07T14:08:56;16.63;;;8.20;;
43626;SDS011;29217;52.586;13.442;2024-03-07T14:27:09;13.75;;;6.10;;
43626;SDS011;29217;52.586;13.442;2024-03-07T14:32:10;14.63;;;6.82;;
43626;SDS011;29217;52.586;13.442;2024-03-07T14:34:47;15.57;;;7.40;;
43626;SDS011;29217;52.586;13.442;2024-03-07T14:37:23;12.43;;;6.53;;
43626;SDS011;29217;52.586;13.442;2024-03-07T14:39:50;12.23;;;6.22;;
43626;SDS011;29217;52.586;13.442;2024-03-07T14:42:16;14.02;;;6.28;;
43626;SDS011;29217;52.586;13.442;2024-03-07T14:44:44;12.57;;;6.47;;
43626;SDS011;29217;52.586;13.442;2024-03-07T14:47:13;17.77;;;7.88;;
43626;SDS011;29217;52.586;13.442;2024-03-07T14:49:40;14.20;;;7.00;;